PWSweather.com
Personal Weather Stations
Station Observations

ChardChardGB

Lat: 50.877408, Lon: -2.94964741

Elevation: 341

Station Type: WS3083

http://www.merriott-astro.co.uk/weather/index.htm

Latest ConditionsUpdated 7:00:12 PM GMT Sunday, Jan 26, 2020
Currently Today's Max Today's Min Today's Average
Temperature 44.8°F7.1°C 50.0°F10.0°C 44.8°F7.1°C 47.9°F8.8°C
Dew Point 42.0°F5.6°C 46.7°F8.2°C 40.9°F4.9°C 43.5°F6.4°C
Winds 1.3 mph S2.1 kmh S 17.4 mph -28.0 kmh - - 7.0 mph 11.3 kmh
Wind Gusts 2.2 mph3.5 kmh 24.4 mph39.3 kmh - -
Humidity 90% 90% 81% 85%
Pressure 28.89 in978.3 mb 29.07 in984.4 mb 28.86 in977.3 mb -
Precipitation - 0.72 in18.3 mm - -
Hour Temp Dew Point Humidity Winds Wind Gusts Pressure Precip Precip Rate Daily Precip Total
07:00 PM 44.8°F7.1°C 42.0°F5.6°C 90% 1.3 mph S2.1 kmh S 2.2 mph3.5 kmh 28.89 in978.3 mb 0.00 in0.0 mm 0.00 in0.0 mm 0.72 in18.3 mm
06:50 PM 45.1°F7.3°C 42.4°F5.8°C 90% 1.2 mph S1.9 kmh S 1.6 mph2.6 kmh 28.89 in978.3 mb 0.00 in0.0 mm 0.00 in0.0 mm 0.72 in18.3 mm
06:40 PM 45.7°F7.6°C 41.1°F5.1°C 84% 2.7 mph SSW4.3 kmh SSW 3.8 mph6.1 kmh 28.89 in978.3 mb 0.00 in0.0 mm 0.00 in0.0 mm 0.72 in18.3 mm
06:30 PM 45.9°F7.7°C 41.0°F5.0°C 83% 2.4 mph S3.9 kmh S 3.8 mph6.1 kmh 28.89 in978.3 mb 0.00 in0.0 mm 0.00 in0.0 mm 0.72 in18.3 mm
06:20 PM 46.0°F7.8°C 40.9°F4.9°C 82% 1.4 mph S2.3 kmh S 2.2 mph3.5 kmh 28.87 in977.7 mb 0.00 in0.0 mm 0.00 in0.0 mm 0.72 in18.3 mm
06:10 PM 46.4°F8.0°C 41.2°F5.1°C 82% 2.2 mph S3.5 kmh S 3.8 mph6.1 kmh 28.88 in978.0 mb 0.00 in0.0 mm 0.00 in0.0 mm 0.72 in18.3 mm
06:00 PM 46.6°F8.1°C 41.4°F5.2°C 82% 2.2 mph S3.5 kmh S 3.8 mph6.1 kmh 28.88 in978.0 mb 0.00 in0.0 mm 0.00 in0.0 mm 0.72 in18.3 mm
05:50 PM 46.8°F8.2°C 41.6°F5.3°C 82% 2.2 mph S3.5 kmh S 4.5 mph7.2 kmh 28.89 in978.3 mb 0.00 in0.0 mm 0.00 in0.0 mm 0.72 in18.3 mm
05:40 PM 46.9°F8.3°C 41.7°F5.4°C 82% 1.9 mph SSW3.1 kmh SSW 4.5 mph7.2 kmh 28.89 in978.3 mb 0.00 in0.0 mm 0.00 in0.0 mm 0.72 in18.3 mm
05:30 PM 47.1°F8.4°C 41.9°F5.5°C 82% 1.8 mph SW2.9 kmh SW 2.2 mph3.5 kmh 28.89 in978.3 mb 0.00 in0.0 mm 0.00 in0.0 mm 0.72 in18.3 mm
05:20 PM 47.5°F8.6°C 41.9°F5.5°C 81% 2.4 mph SSW3.9 kmh SSW 3.8 mph6.1 kmh 28.89 in978.3 mb 0.00 in0.0 mm 0.00 in0.0 mm 0.72 in18.3 mm
05:10 PM 47.7°F8.7°C 42.1°F5.6°C 81% 3.2 mph S5.1 kmh S 5.4 mph8.7 kmh 28.88 in978.0 mb 0.01 in0.3 mm 0.00 in0.0 mm 0.72 in18.3 mm
05:00 PM 48.0°F8.9°C 42.8°F6.0°C 82% 4.0 mph SW6.4 kmh SW 6.0 mph9.7 kmh 28.88 in978.0 mb 0.02 in0.5 mm 0.00 in0.0 mm 0.72 in18.3 mm
04:50 PM 48.2°F9.0°C 43.0°F6.1°C 82% 5.0 mph SW8.0 kmh SW 6.9 mph11.1 kmh 28.88 in978.0 mb 0.02 in0.5 mm 0.00 in0.0 mm 0.72 in18.3 mm
04:40 PM 48.7°F9.3°C 44.1°F6.7°C 84% 4.7 mph SW7.6 kmh SW 6.9 mph11.1 kmh 28.88 in978.0 mb 0.02 in0.5 mm 0.00 in0.0 mm 0.72 in18.3 mm
04:30 PM 49.3°F9.6°C 45.0°F7.2°C 85% 2.8 mph NW4.5 kmh NW 4.5 mph7.2 kmh 28.88 in978.0 mb 0.02 in0.5 mm 0.00 in0.0 mm 0.72 in18.3 mm
04:20 PM 49.5°F9.7°C 45.1°F7.3°C 85% 2.5 mph SW4.0 kmh SW 4.5 mph7.2 kmh 28.88 in978.0 mb 0.02 in0.5 mm 0.06 in1.5 mm 0.72 in18.3 mm
04:10 PM 49.6°F9.8°C 45.3°F7.4°C 85% 0.9 mph SW1.4 kmh SW 2.2 mph3.5 kmh 28.88 in978.0 mb 0.01 in0.3 mm 0.06 in1.5 mm 0.71 in18.0 mm
04:00 PM 49.8°F9.9°C 45.5°F7.5°C 85% 1.8 mph WSW2.9 kmh WSW 3.1 mph5.0 kmh 28.88 in978.0 mb 0.00 in0.0 mm 0.00 in0.0 mm 0.70 in17.8 mm
03:50 PM 50.0°F10.0°C 46.0°F7.8°C 86% 2.6 mph S4.2 kmh S 3.8 mph6.1 kmh 28.88 in978.0 mb 0.00 in0.0 mm 0.00 in0.0 mm 0.70 in17.8 mm
03:40 PM 50.0°F10.0°C 46.3°F7.9°C 87% 3.9 mph SW6.3 kmh SW 6.9 mph11.1 kmh 28.88 in978.0 mb 0.00 in0.0 mm 0.00 in0.0 mm 0.70 in17.8 mm
03:30 PM 50.0°F10.0°C 46.3°F7.9°C 87% 1.8 mph SW2.9 kmh SW 4.5 mph7.2 kmh 28.87 in977.7 mb 0.00 in0.0 mm 0.00 in0.0 mm 0.70 in17.8 mm
03:20 PM 50.0°F10.0°C 46.6°F8.1°C 88% 4.1 mph S6.6 kmh S 6.0 mph9.7 kmh 28.88 in978.0 mb 0.01 in0.3 mm 0.00 in0.0 mm 0.70 in17.8 mm
03:10 PM 50.0°F10.0°C 46.6°F8.1°C 88% 6.9 mph S11.1 kmh S 9.2 mph14.8 kmh 28.87 in977.7 mb 0.01 in0.3 mm 0.00 in0.0 mm 0.70 in17.8 mm
03:00 PM 49.8°F9.9°C 46.7°F8.2°C 89% 6.3 mph SW10.1 kmh SW 9.2 mph14.8 kmh 28.86 in977.3 mb 0.01 in0.3 mm 0.00 in0.0 mm 0.70 in17.8 mm
02:50 PM 49.8°F9.9°C 46.7°F8.2°C 89% 6.6 mph S10.6 kmh S 11.4 mph18.3 kmh 28.86 in977.3 mb 0.01 in0.3 mm 0.00 in0.0 mm 0.70 in17.8 mm
02:40 PM 49.8°F9.9°C 46.7°F8.2°C 89% 6.7 mph S10.8 kmh S 9.8 mph15.8 kmh 28.87 in977.7 mb 0.02 in0.5 mm 0.00 in0.0 mm 0.70 in17.8 mm
02:30 PM 49.5°F9.7°C 46.4°F8.0°C 89% 9.0 mph S14.5 kmh S 15.2 mph24.5 kmh 28.87 in977.7 mb 0.04 in1.0 mm 0.00 in0.0 mm 0.70 in17.8 mm
02:20 PM 49.5°F9.7°C 46.4°F8.0°C 89% 8.9 mph WSW14.3 kmh WSW 13.6 mph21.9 kmh 28.87 in977.7 mb 0.05 in1.3 mm 0.00 in0.0 mm 0.69 in17.5 mm
02:10 PM 49.3°F9.6°C 46.2°F7.9°C 89% 11.8 mph SSW19.0 kmh SSW 16.8 mph27.0 kmh 28.88 in978.0 mb 0.06 in1.5 mm 0.00 in0.0 mm 0.69 in17.5 mm
02:00 PM 49.3°F9.6°C 46.2°F7.9°C 89% 16.1 mph SSW25.9 kmh SSW 24.4 mph39.3 kmh 28.88 in978.0 mb 0.08 in2.0 mm 0.00 in0.0 mm 0.69 in17.5 mm
01:50 PM 49.1°F9.5°C 46.0°F7.8°C 89% 11.5 mph SSW18.5 kmh SSW 15.2 mph24.5 kmh 28.88 in978.0 mb 0.14 in3.6 mm 0.00 in0.0 mm 0.69 in17.5 mm
01:40 PM 49.1°F9.5°C 45.7°F7.6°C 88% 12.0 mph WSW19.3 kmh WSW 21.3 mph34.3 kmh 28.88 in978.0 mb 0.20 in5.1 mm 0.00 in0.0 mm 0.67 in17.0 mm
01:30 PM 49.1°F9.5°C 45.7°F7.6°C 88% 13.8 mph SSW22.2 kmh SSW 16.8 mph27.0 kmh 28.89 in978.3 mb 0.20 in5.1 mm 0.06 in1.5 mm 0.66 in16.8 mm
01:20 PM 49.5°F9.7°C 46.1°F7.8°C 88% 14.7 mph S23.7 kmh S 20.6 mph33.2 kmh 28.89 in978.3 mb 0.19 in4.8 mm 0.06 in1.5 mm 0.64 in16.3 mm
01:10 PM 49.5°F9.7°C 46.1°F7.8°C 88% 13.1 mph SSW21.1 kmh SSW 18.3 mph29.5 kmh 28.89 in978.3 mb 0.18 in4.6 mm 0.00 in0.0 mm 0.61 in15.5 mm
01:00 PM 49.3°F9.6°C 45.6°F7.6°C 87% 15.0 mph S24.1 kmh S 20.6 mph33.2 kmh 28.89 in978.3 mb 0.21 in5.3 mm 0.05 in1.3 mm 0.60 in15.2 mm
12:50 PM 49.5°F9.7°C 46.1°F7.8°C 88% 17.4 mph S28.0 kmh S 22.1 mph35.6 kmh 28.90 in978.7 mb 0.17 in4.3 mm 0.30 in7.6 mm 0.54 in13.7 mm
12:40 PM 49.8°F9.9°C 46.7°F8.2°C 89% 15.0 mph S24.1 kmh S 22.1 mph35.6 kmh 28.91 in979.0 mb 0.12 in3.0 mm 0.00 in0.0 mm 0.47 in11.9 mm
12:30 PM 49.8°F9.9°C 46.7°F8.2°C 89% 14.3 mph S23.0 kmh S 19.7 mph31.7 kmh 28.91 in979.0 mb 0.18 in4.6 mm 0.00 in0.0 mm 0.46 in11.7 mm
12:20 PM 49.6°F9.8°C 46.2°F7.9°C 88% 14.9 mph S24.0 kmh S 22.1 mph35.6 kmh 28.91 in979.0 mb 0.22 in5.6 mm 0.00 in0.0 mm 0.45 in11.4 mm
12:10 PM 49.6°F9.8°C 46.5°F8.1°C 89% 15.3 mph S24.6 kmh S 20.6 mph33.2 kmh 28.92 in979.3 mb 0.25 in6.4 mm 0.00 in0.0 mm 0.44 in11.2 mm
12:00 PM 49.6°F9.8°C 46.5°F8.1°C 89% 16.2 mph S26.1 kmh S 22.1 mph35.6 kmh 28.92 in979.3 mb 0.25 in6.4 mm 0.00 in0.0 mm 0.39 in9.9 mm
11:50 AM 49.6°F9.8°C 46.5°F8.1°C 89% 16.6 mph S26.7 kmh S 24.4 mph39.3 kmh 28.92 in979.3 mb 0.27 in6.9 mm 0.12 in3.0 mm 0.38 in9.7 mm
11:40 AM 49.5°F9.7°C 46.4°F8.0°C 89% 16.7 mph SSW26.9 kmh SSW 20.6 mph33.2 kmh 28.93 in979.7 mb 0.25 in6.4 mm 0.36 in9.1 mm 0.34 in8.6 mm
11:30 AM 49.5°F9.7°C 46.4°F8.0°C 89% 13.8 mph SSW22.2 kmh SSW 22.1 mph35.6 kmh 28.93 in979.7 mb 0.19 in4.8 mm 0.24 in6.1 mm 0.28 in7.1 mm
11:20 AM 49.5°F9.7°C 46.4°F8.0°C 89% 15.0 mph S24.1 kmh S 19.0 mph30.6 kmh 28.93 in979.7 mb 0.15 in3.8 mm 0.12 in3.0 mm 0.22 in5.6 mm
11:10 AM 49.5°F9.7°C 46.1°F7.8°C 88% 16.0 mph SSW25.7 kmh SSW 19.7 mph31.7 kmh 28.94 in980.0 mb 0.13 in3.3 mm 0.06 in1.5 mm 0.19 in4.8 mm
11:00 AM 49.5°F9.7°C 46.1°F7.8°C 88% 14.2 mph S22.9 kmh S 19.7 mph31.7 kmh 28.94 in980.0 mb 0.12 in3.0 mm 0.01 in0.3 mm 0.14 in3.6 mm
10:50 AM 49.5°F9.7°C 46.1°F7.8°C 88% 11.2 mph SSW18.0 kmh SSW 16.8 mph27.0 kmh 28.95 in980.4 mb 0.11 in2.8 mm 0.12 in3.0 mm 0.11 in2.8 mm
10:40 AM 49.1°F9.5°C 45.7°F7.6°C 88% 6.8 mph SSW10.9 kmh SSW 12.1 mph19.5 kmh 28.95 in980.4 mb 0.09 in2.3 mm 0.00 in0.0 mm 0.09 in2.3 mm
10:30 AM 49.1°F9.5°C 45.4°F7.4°C 87% 13.5 mph SW21.7 kmh SW 17.4 mph28.0 kmh 28.95 in980.4 mb 0.09 in2.3 mm 0.12 in3.0 mm 0.09 in2.3 mm
10:20 AM 48.9°F9.4°C 44.9°F7.2°C 86% 12.6 mph S20.3 kmh S 17.4 mph28.0 kmh 28.94 in980.0 mb 0.07 in1.8 mm 0.06 in1.5 mm 0.07 in1.8 mm
10:10 AM 48.9°F9.4°C 44.6°F7.0°C 85% 10.6 mph S17.1 kmh S 14.5 mph23.3 kmh 28.95 in980.4 mb 0.06 in1.5 mm 0.24 in6.1 mm 0.06 in1.5 mm
10:00 AM 48.9°F9.4°C 44.3°F6.8°C 84% 10.7 mph S17.2 kmh S 15.9 mph25.6 kmh 28.95 in980.4 mb 0.02 in0.5 mm 0.02 in0.5 mm 0.02 in0.5 mm
09:50 AM 49.1°F9.5°C 44.5°F6.9°C 84% 11.2 mph SSW18.0 kmh SSW 15.9 mph25.6 kmh 28.96 in980.7 mb 0.00 in0.0 mm 0.00 in0.0 mm 0.00 in0.0 mm
09:40 AM 48.9°F9.4°C 44.3°F6.8°C 84% 12.0 mph SSW19.3 kmh SSW 19.7 mph31.7 kmh 28.96 in980.7 mb 0.00 in0.0 mm 0.00 in0.0 mm 0.00 in0.0 mm
09:30 AM 48.9°F9.4°C 44.0°F6.7°C 83% 11.7 mph SW18.8 kmh SW 14.5 mph23.3 kmh 28.97 in981.0 mb 0.00 in0.0 mm 0.00 in0.0 mm 0.00 in0.0 mm
09:20 AM 48.6°F9.2°C 43.6°F6.4°C 83% 11.4 mph S18.3 kmh S 15.2 mph24.5 kmh 28.96 in980.7 mb 0.00 in0.0 mm 0.00 in0.0 mm 0.00 in0.0 mm
09:10 AM 48.6°F9.2°C 43.6°F6.4°C 83% 11.3 mph S18.2 kmh S 15.9 mph25.6 kmh 28.97 in981.0 mb 0.00 in0.0 mm 0.00 in0.0 mm 0.00 in0.0 mm
09:00 AM 48.4°F9.1°C 43.5°F6.4°C 83% 12.0 mph S19.3 kmh S 15.9 mph25.6 kmh 28.98 in981.4 mb 0.00 in0.0 mm 0.00 in0.0 mm 0.00 in0.0 mm
08:50 AM 48.0°F8.9°C 43.4°F6.3°C 84% 9.2 mph S14.8 kmh S 11.4 mph18.3 kmh 28.98 in981.4 mb 0.00 in0.0 mm 0.00 in0.0 mm 0.00 in0.0 mm
08:40 AM 47.8°F8.8°C 42.9°F6.1°C 83% 8.5 mph SSW13.7 kmh SSW 10.7 mph17.2 kmh 28.98 in981.4 mb 0.00 in0.0 mm 0.00 in0.0 mm 0.00 in0.0 mm
08:30 AM 47.7°F8.7°C 42.8°F6.0°C 83% 5.7 mph S9.2 kmh S 8.3 mph13.4 kmh 28.98 in981.4 mb 0.00 in0.0 mm 0.00 in0.0 mm 0.00 in0.0 mm
08:20 AM 47.8°F8.8°C 42.6°F5.9°C 82% 7.3 mph S11.7 kmh S 10.7 mph17.2 kmh 28.99 in981.7 mb 0.00 in0.0 mm 0.00 in0.0 mm 0.00 in0.0 mm
08:10 AM 48.0°F8.9°C 42.5°F5.8°C 81% 9.6 mph S15.4 kmh S 12.1 mph19.5 kmh 28.99 in981.7 mb 0.00 in0.0 mm 0.00 in0.0 mm 0.00 in0.0 mm
08:00 AM 47.7°F8.7°C 42.4°F5.8°C 82% 6.7 mph S10.8 kmh S 9.2 mph14.8 kmh 28.99 in981.7 mb 0.00 in0.0 mm 0.00 in0.0 mm 0.00 in0.0 mm
07:50 AM 47.5°F8.6°C 42.6°F5.9°C 83% 5.8 mph S9.3 kmh S 10.7 mph17.2 kmh 28.99 in981.7 mb 0.00 in0.0 mm 0.00 in0.0 mm 0.00 in0.0 mm
07:40 AM 47.3°F8.5°C 42.4°F5.8°C 83% 6.2 mph S10.0 kmh S 9.2 mph14.8 kmh 29.00 in982.1 mb 0.00 in0.0 mm 0.00 in0.0 mm 0.00 in0.0 mm
07:30 AM 47.1°F8.4°C 42.2°F5.7°C 83% 4.5 mph SSW7.2 kmh SSW 5.4 mph8.7 kmh 28.99 in981.7 mb 0.00 in0.0 mm 0.00 in0.0 mm 0.00 in0.0 mm
07:20 AM 46.8°F8.2°C 41.9°F5.5°C 83% 3.5 mph SSW5.6 kmh SSW 4.5 mph7.2 kmh 28.99 in981.7 mb 0.00 in0.0 mm 0.00 in0.0 mm 0.00 in0.0 mm
07:10 AM 46.8°F8.2°C 41.9°F5.5°C 83% 5.4 mph S8.7 kmh S 8.3 mph13.4 kmh 28.99 in981.7 mb 0.00 in0.0 mm 0.00 in0.0 mm 0.00 in0.0 mm
07:00 AM 46.6°F8.1°C 41.7°F5.4°C 83% 6.5 mph SSW10.5 kmh SSW 9.8 mph15.8 kmh 28.99 in981.7 mb 0.00 in0.0 mm 0.00 in0.0 mm 0.00 in0.0 mm
06:50 AM 46.2°F7.9°C 41.3°F5.2°C 83% 5.6 mph SW9.0 kmh SW 7.6 mph12.2 kmh 29.00 in982.1 mb 0.00 in0.0 mm 0.00 in0.0 mm 0.00 in0.0 mm
06:40 AM 46.2°F7.9°C 41.0°F5.0°C 82% 4.3 mph SSW6.9 kmh SSW 6.0 mph9.7 kmh 28.99 in981.7 mb 0.00 in0.0 mm 0.00 in0.0 mm 0.00 in0.0 mm
06:30 AM 46.6°F8.1°C 41.4°F5.2°C 82% 6.1 mph SSW9.8 kmh SSW 8.3 mph13.4 kmh 28.99 in981.7 mb 0.00 in0.0 mm 0.00 in0.0 mm 0.00 in0.0 mm
06:20 AM 46.6°F8.1°C 41.4°F5.2°C 82% 6.2 mph S10.0 kmh S 9.2 mph14.8 kmh 28.99 in981.7 mb 0.00 in0.0 mm 0.00 in0.0 mm 0.00 in0.0 mm
06:10 AM 46.8°F8.2°C 41.6°F5.3°C 82% 4.4 mph S7.1 kmh S 6.0 mph9.7 kmh 28.99 in981.7 mb 0.00 in0.0 mm 0.00 in0.0 mm 0.00 in0.0 mm
06:00 AM 46.9°F8.3°C 41.7°F5.4°C 82% 4.6 mph SW7.4 kmh SW 6.9 mph11.1 kmh 29.00 in982.1 mb 0.00 in0.0 mm 0.00 in0.0 mm 0.00 in0.0 mm
05:50 AM 46.9°F8.3°C 41.4°F5.2°C 81% 5.3 mph SSW8.5 kmh SSW 8.3 mph13.4 kmh 29.00 in982.1 mb 0.00 in0.0 mm 0.00 in0.0 mm 0.00 in0.0 mm
05:40 AM 46.9°F8.3°C 41.4°F5.2°C 81% 6.2 mph S10.0 kmh S 9.2 mph14.8 kmh 29.00 in982.1 mb 0.00 in0.0 mm 0.00 in0.0 mm 0.00 in0.0 mm
05:30 AM 46.9°F8.3°C 41.7°F5.4°C 82% 6.6 mph S10.6 kmh S 9.2 mph14.8 kmh 29.01 in982.4 mb 0.00 in0.0 mm 0.00 in0.0 mm 0.00 in0.0 mm
05:20 AM 46.9°F8.3°C 41.7°F5.4°C 82% 5.3 mph SSW8.5 kmh SSW 6.9 mph11.1 kmh 29.01 in982.4 mb 0.00 in0.0 mm 0.00 in0.0 mm 0.00 in0.0 mm
05:10 AM 46.8°F8.2°C 41.9°F5.5°C 83% 4.3 mph S6.9 kmh S 5.4 mph8.7 kmh 29.02 in982.7 mb 0.00 in0.0 mm 0.00 in0.0 mm 0.00 in0.0 mm
05:00 AM 46.8°F8.2°C 41.9°F5.5°C 83% 5.7 mph S9.2 kmh S 8.3 mph13.4 kmh 29.02 in982.7 mb 0.00 in0.0 mm 0.00 in0.0 mm 0.00 in0.0 mm
04:50 AM 46.9°F8.3°C 42.1°F5.6°C 83% 5.4 mph S8.7 kmh S 9.2 mph14.8 kmh 29.02 in982.7 mb 0.00 in0.0 mm 0.00 in0.0 mm 0.00 in0.0 mm
04:40 AM 46.9°F8.3°C 42.1°F5.6°C 83% 4.9 mph SSW7.9 kmh SSW 6.9 mph11.1 kmh 29.02 in982.7 mb 0.00 in0.0 mm 0.00 in0.0 mm 0.00 in0.0 mm
04:30 AM 46.8°F8.2°C 41.9°F5.5°C 83% 4.9 mph SW7.9 kmh SW 9.8 mph15.8 kmh 29.02 in982.7 mb 0.00 in0.0 mm 0.00 in0.0 mm 0.00 in0.0 mm
04:20 AM 46.8°F8.2°C 42.2°F5.7°C 84% 5.2 mph SW8.4 kmh SW 8.3 mph13.4 kmh 29.02 in982.7 mb 0.00 in0.0 mm 0.00 in0.0 mm 0.00 in0.0 mm
04:10 AM 46.8°F8.2°C 42.5°F5.8°C 85% 5.5 mph SSW8.9 kmh SSW 8.3 mph13.4 kmh 29.02 in982.7 mb 0.00 in0.0 mm 0.00 in0.0 mm 0.00 in0.0 mm
04:00 AM 46.6°F8.1°C 42.6°F5.9°C 86% 4.1 mph S6.6 kmh S 5.4 mph8.7 kmh 29.02 in982.7 mb 0.00 in0.0 mm 0.00 in0.0 mm 0.00 in0.0 mm
03:50 AM 46.4°F8.0°C 42.4°F5.8°C 86% 4.2 mph S6.8 kmh S 7.6 mph12.2 kmh 29.02 in982.7 mb 0.00 in0.0 mm 0.00 in0.0 mm 0.00 in0.0 mm
03:40 AM 46.2°F7.9°C 42.3°F5.7°C 86% 2.8 mph SW4.5 kmh SW 3.8 mph6.1 kmh 29.03 in983.1 mb 0.00 in0.0 mm 0.00 in0.0 mm 0.00 in0.0 mm
03:30 AM 46.0°F7.8°C 42.1°F5.6°C 86% 3.2 mph S5.1 kmh S 6.0 mph9.7 kmh 29.03 in983.1 mb 0.00 in0.0 mm 0.00 in0.0 mm 0.00 in0.0 mm
03:20 AM 45.5°F7.5°C 41.3°F5.2°C 85% 1.8 mph S2.9 kmh S 3.1 mph5.0 kmh 29.02 in982.7 mb 0.00 in0.0 mm 0.00 in0.0 mm 0.00 in0.0 mm
03:10 AM 45.5°F7.5°C 41.3°F5.2°C 85% 2.1 mph S3.4 kmh S 3.8 mph6.1 kmh 29.03 in983.1 mb 0.00 in0.0 mm 0.00 in0.0 mm 0.00 in0.0 mm
03:00 AM 45.9°F7.7°C 41.6°F5.3°C 85% 3.5 mph SSW5.6 kmh SSW 6.0 mph9.7 kmh 29.03 in983.1 mb 0.00 in0.0 mm 0.00 in0.0 mm 0.00 in0.0 mm
02:50 AM 46.2°F7.9°C 42.0°F5.6°C 85% 4.4 mph S7.1 kmh S 6.0 mph9.7 kmh 29.04 in983.4 mb 0.00 in0.0 mm 0.00 in0.0 mm 0.00 in0.0 mm
02:40 AM 46.4°F8.0°C 42.1°F5.6°C 85% 4.1 mph SSW6.6 kmh SSW 6.9 mph11.1 kmh 29.04 in983.4 mb 0.00 in0.0 mm 0.00 in0.0 mm 0.00 in0.0 mm
02:30 AM 46.4°F8.0°C 42.1°F5.6°C 85% 4.3 mph SSW6.9 kmh SSW 6.0 mph9.7 kmh 29.04 in983.4 mb 0.00 in0.0 mm 0.00 in0.0 mm 0.00 in0.0 mm
02:20 AM 46.2°F7.9°C 42.0°F5.6°C 85% 4.0 mph SSW6.4 kmh SSW 8.3 mph13.4 kmh 29.04 in983.4 mb 0.00 in0.0 mm 0.00 in0.0 mm 0.00 in0.0 mm
02:10 AM 46.4°F8.0°C 42.1°F5.6°C 85% 5.7 mph SSW9.2 kmh SSW 9.2 mph14.8 kmh 29.04 in983.4 mb 0.00 in0.0 mm 0.00 in0.0 mm 0.00 in0.0 mm
02:00 AM 46.4°F8.0°C 42.1°F5.6°C 85% 5.2 mph SSW8.4 kmh SSW 7.6 mph12.2 kmh 29.05 in983.7 mb 0.00 in0.0 mm 0.00 in0.0 mm 0.00 in0.0 mm
01:50 AM 46.8°F8.2°C 42.5°F5.8°C 85% 5.0 mph S8.0 kmh S 7.6 mph12.2 kmh 29.05 in983.7 mb 0.00 in0.0 mm 0.00 in0.0 mm 0.00 in0.0 mm
01:40 AM 47.1°F8.4°C 42.8°F6.0°C 85% 5.5 mph SW8.9 kmh SW 9.2 mph14.8 kmh 29.05 in983.7 mb 0.00 in0.0 mm 0.00 in0.0 mm 0.00 in0.0 mm
01:30 AM 47.1°F8.4°C 42.8°F6.0°C 85% 6.7 mph S10.8 kmh S 8.3 mph13.4 kmh 29.05 in983.7 mb 0.00 in0.0 mm 0.00 in0.0 mm 0.00 in0.0 mm
01:20 AM 46.9°F8.3°C 42.7°F5.9°C 85% 5.2 mph S8.4 kmh S 6.9 mph11.1 kmh 29.05 in983.7 mb 0.00 in0.0 mm 0.00 in0.0 mm 0.00 in0.0 mm
01:10 AM 46.8°F8.2°C 42.2°F5.7°C 84% 5.5 mph S8.9 kmh S 7.6 mph12.2 kmh 29.05 in983.7 mb 0.00 in0.0 mm 0.00 in0.0 mm 0.00 in0.0 mm
01:00 AM 46.6°F8.1°C 41.7°F5.4°C 83% 4.5 mph S7.2 kmh S 7.6 mph12.2 kmh 29.06 in984.1 mb 0.00 in0.0 mm 0.00 in0.0 mm 0.00 in0.0 mm
12:50 AM 46.9°F8.3°C 42.1°F5.6°C 83% 4.7 mph S7.6 kmh S 6.9 mph11.1 kmh 29.05 in983.7 mb 0.00 in0.0 mm 0.00 in0.0 mm 0.00 in0.0 mm
12:40 AM 47.1°F8.4°C 42.2°F5.7°C 83% 4.2 mph S6.8 kmh S 6.9 mph11.1 kmh 29.05 in983.7 mb 0.00 in0.0 mm 0.00 in0.0 mm 0.00 in0.0 mm
12:30 AM 47.3°F8.5°C 42.4°F5.8°C 83% 4.0 mph SSW6.4 kmh SSW 6.9 mph11.1 kmh 29.06 in984.1 mb 0.00 in0.0 mm 0.00 in0.0 mm 0.00 in0.0 mm
12:20 AM 47.3°F8.5°C 42.4°F5.8°C 83% 4.7 mph SSW7.6 kmh SSW 9.2 mph14.8 kmh 29.07 in984.4 mb 0.00 in0.0 mm 0.00 in0.0 mm 0.00 in0.0 mm
12:10 AM 47.5°F8.6°C 42.6°F5.9°C 83% 5.3 mph SW8.5 kmh SW 9.2 mph14.8 kmh 29.06 in984.1 mb 0.00 in0.0 mm 0.00 in0.0 mm 0.00 in0.0 mm
12:00 AM 47.7°F8.7°C 42.8°F6.0°C 83% 4.8 mph SSW7.7 kmh SSW 8.3 mph13.4 kmh 29.07 in984.4 mb 0.00 in0.0 mm 0.00 in0.0 mm 0.00 in0.0 mm